Cache, Oklahoma
Current Conditions -  °F | °C
As of 9:53 PM on Thursday 18 Dec 2014 (Local Time) from KLAW Reporting Station
Overcast Overcast  
Wind Chill: 38°   Ceiling: 800
Heat Index: 43°   Visibility: 10mi
Dew Point: 40°   Wind: 9mph
Humidity: 89%   Direction: 30°NNE
Pressure: 30.18"   Gusts: NA
Location:  34.63°N, 98.63°W
Report Text: KLAW 190353Z AUTO 03008KT 10SM BKN008 BKN012 OVC023 06/04 A3018 RMK AO2 SLP226 T00610044
Loading
Personal Weather Stations






























Interactive Weather Map New forecast layout! Learn more

10-Day Weather Forecast

Advertisements
Track Severe Weather on mobile